createdAt,value
2019-01-22T00:02:06.123Z,11.50
2019-01-22T00:04:36.115Z,11.90
2019-01-22T00:07:05.970Z,11.45
2019-01-22T00:09:36.879Z,10.55
2019-01-22T00:12:06.975Z,9.75
2019-01-22T00:14:37.735Z,10.00
2019-01-22T00:17:07.701Z,9.33
2019-01-22T00:19:38.742Z,10.15
2019-01-22T00:22:08.571Z,8.63
2019-01-22T00:24:38.271Z,9.73
2019-01-22T00:27:08.966Z,7.47
2019-01-22T00:29:39.872Z,8.00
2019-01-22T00:32:10.892Z,11.15
2019-01-22T00:34:40.767Z,10.48
2019-01-22T00:37:10.475Z,10.45
2019-01-22T00:39:42.099Z,8.40
2019-01-22T00:42:12.064Z,11.10
2019-01-22T00:44:42.169Z,8.60
2019-01-22T00:47:12.015Z,8.85
2019-01-22T00:49:42.672Z,8.28
2019-01-22T00:52:13.250Z,7.10
2019-01-22T00:54:42.943Z,9.35
2019-01-22T00:57:12.875Z,8.93
2019-01-22T00:59:42.590Z,11.12
2019-01-22T01:02:13.561Z,8.55
2019-01-22T01:04:44.561Z,10.15
2019-01-22T01:07:14.410Z,9.53
2019-01-22T01:09:45.059Z,8.60
2019-01-22T01:12:14.787Z,9.20
2019-01-22T01:14:44.475Z,10.58
2019-01-22T01:17:14.415Z,11.05
2019-01-22T01:19:50.284Z,11.20
2019-01-22T01:22:21.020Z,10.60
2019-01-22T01:24:52.139Z,11.03
2019-01-22T01:27:22.119Z,9.18
2019-01-22T01:29:51.948Z,11.35
2019-01-22T01:32:21.667Z,10.05
2019-01-22T01:34:51.363Z,10.28
2019-01-22T01:37:22.271Z,10.40
2019-01-22T01:39:52.115Z,11.53
2019-01-22T01:42:21.819Z,11.45
2019-01-22T01:44:51.519Z,9.50
2019-01-22T01:47:22.661Z,12.23
2019-01-22T01:49:58.755Z,11.55
2019-01-22T01:52:28.736Z,12.10
2019-01-22T01:54:58.574Z,12.53
2019-01-22T01:57:28.543Z,12.60
2019-01-22T01:59:58.394Z,10.95
2019-01-22T02:02:28.099Z,12.37
2019-01-22T02:04:58.788Z,12.90
2019-01-22T02:07:33.207Z,11.78
2019-01-22T02:10:08.021Z,13.70
2019-01-22T02:12:40.779Z,11.83
2019-01-22T02:15:22.122Z,12.43
2019-01-22T02:18:13.076Z,13.70
2019-01-22T02:20:53.551Z,12.65
2019-01-22T02:23:49.158Z,13.88
2019-01-22T02:26:43.409Z,12.75
2019-01-22T02:29:30.910Z,12.18
2019-01-22T02:32:32.591Z,13.35
2019-01-22T02:35:27.561Z,14.33
2019-01-22T02:38:09.311Z,12.82
2019-01-22T02:40:42.095Z,13.40
2019-01-22T02:43:43.664Z,14.70
2019-01-22T02:46:20.179Z,13.05
2019-01-22T02:49:23.191Z,14.28
2019-01-22T02:52:10.868Z,14.68
2019-01-22T02:54:56.456Z,13.68
2019-01-22T02:57:36.713Z,14.38
2019-01-22T03:00:24.475Z,15.50
2019-01-22T03:03:01.637Z,14.35
2019-01-22T03:05:54.312Z,17.25
2019-01-22T03:08:45.826Z,14.65
2019-01-22T03:11:28.188Z,16.12
2019-01-22T03:14:22.193Z,13.32
2019-01-22T03:17:02.000Z,13.55
2019-01-22T03:19:36.818Z,14.23
2019-01-22T03:22:10.104Z,15.00
2019-01-22T03:25:08.647Z,14.73
2019-01-22T03:27:58.663Z,13.53
2019-01-22T03:30:44.216Z,13.55
2019-01-22T03:33:26.072Z,15.80
2019-01-22T03:36:09.200Z,15.93
2019-01-22T03:38:52.698Z,17.62
2019-01-22T03:41:44.035Z,15.48
2019-01-22T03:44:57.600Z,16.80
2019-01-22T03:47:47.659Z,16.15
2019-01-22T03:50:34.348Z,17.82
2019-01-22T03:53:22.371Z,16.15
2019-01-22T03:56:10.211Z,18.57
2019-01-22T03:58:48.893Z,15.80
2019-01-22T04:01:18.924Z,16.65
2019-01-22T04:03:49.579Z,13.80
2019-01-22T04:06:21.095Z,16.20
2019-01-22T04:08:53.519Z,16.27
2019-01-22T04:11:27.099Z,16.97
2019-01-22T04:13:56.960Z,15.30
2019-01-22T04:16:28.755Z,18.00
2019-01-22T04:19:02.739Z,17.17
2019-01-22T04:21:33.787Z,17.25
2019-01-22T04:24:12.899Z,16.00
2019-01-22T04:27:28.639Z,15.30
2019-01-22T04:30:15.353Z,14.98
2019-01-22T04:32:56.859Z,12.30
2019-01-22T04:35:56.612Z,14.60
2019-01-22T04:39:07.496Z,14.28
2019-01-22T04:41:59.660Z,14.23
2019-01-22T04:44:40.216Z,14.20
2019-01-22T04:47:43.101Z,15.93
2019-01-22T04:50:38.968Z,15.93
2019-01-22T04:53:37.923Z,14.63
2019-01-22T04:56:24.227Z,17.32
2019-01-22T04:59:21.095Z,16.52
2019-01-22T05:01:57.143Z,15.25
2019-01-22T05:04:29.911Z,14.90
2019-01-22T05:07:32.779Z,18.55
2019-01-22T05:10:21.931Z,16.90
2019-01-22T05:13:09.703Z,15.72
2019-01-22T05:16:13.893Z,16.37
2019-01-22T05:19:09.601Z,17.05
2019-01-22T05:21:45.231Z,15.50
2019-01-22T05:24:41.789Z,16.52
2019-01-22T05:27:38.532Z,16.40
2019-01-22T05:30:39.587Z,15.45
2019-01-22T05:33:27.515Z,14.50
2019-01-22T05:36:28.711Z,15.38
2019-01-22T05:39:12.411Z,15.93
2019-01-22T05:42:15.523Z,17.55
2019-01-22T05:45:21.759Z,16.35
2019-01-22T05:48:15.511Z,17.23
2019-01-22T05:50:58.263Z,17.17
2019-01-22T05:53:51.245Z,16.73
2019-01-22T05:56:26.892Z,17.17
2019-01-22T05:59:01.636Z,15.48
2019-01-22T06:01:53.026Z,17.50
2019-01-22T06:04:45.941Z,15.63
2019-01-22T06:07:29.134Z,15.78
2019-01-22T06:10:27.287Z,18.02
2019-01-22T06:13:09.124Z,16.27
2019-01-22T06:16:22.615Z,18.75
2019-01-22T06:19:15.595Z,14.33
2019-01-22T06:22:03.165Z,16.30
2019-01-22T06:24:40.437Z,15.45
2019-01-22T06:27:21.287Z,14.43
2019-01-22T06:30:27.251Z,17.17
2019-01-22T06:33:14.789Z,16.50
2019-01-22T06:35:52.151Z,14.25
2019-01-22T06:38:38.633Z,16.05
2019-01-22T06:41:22.764Z,16.05
2019-01-22T06:44:49.027Z,15.70
2019-01-22T06:47:36.983Z,13.62
2019-01-22T06:50:27.506Z,11.83
2019-01-22T06:53:12.621Z,13.08
2019-01-22T06:56:12.443Z,13.58
2019-01-22T06:58:51.067Z,13.78
2019-01-22T07:01:33.913Z,12.80
2019-01-22T07:04:15.575Z,9.68
2019-01-22T07:07:03.519Z,11.55
2019-01-22T07:10:00.299Z,12.07
2019-01-22T07:12:37.113Z,14.45
2019-01-22T07:15:24.671Z,14.63
2019-01-22T07:18:09.195Z,11.80
2019-01-22T07:20:47.823Z,11.10
2019-01-22T07:23:38.745Z,13.62
2019-01-22T07:26:34.421Z,13.00
2019-01-22T07:29:33.207Z,12.40
2019-01-22T07:32:08.475Z,11.68
2019-01-22T07:35:04.063Z,13.72
2019-01-22T07:37:44.015Z,12.20
2019-01-22T07:41:02.851Z,13.20
2019-01-22T07:43:59.471Z,11.08
2019-01-22T07:46:52.660Z,13.35
2019-01-22T07:49:41.643Z,11.15
2019-01-22T07:52:43.780Z,14.15
2019-01-22T07:55:51.101Z,12.82
2019-01-22T07:58:49.827Z,11.85
2019-01-22T08:01:29.996Z,13.58
2019-01-22T08:04:40.993Z,13.48
2019-01-22T08:07:32.420Z,11.38
2019-01-22T08:10:29.873Z,12.43
2019-01-22T08:13:38.227Z,11.70
2019-01-22T08:16:45.857Z,13.40
2019-01-22T08:19:32.676Z,11.83
2019-01-22T08:22:33.515Z,12.30
2019-01-22T08:25:23.045Z,12.03
2019-01-22T08:28:46.433Z,14.33
2019-01-22T08:31:27.585Z,13.62
2019-01-22T08:34:21.627Z,13.80
2019-01-22T08:37:12.121Z,14.45
2019-01-22T08:40:16.847Z,12.05
2019-01-22T08:43:11.369Z,11.83
2019-01-22T08:46:09.788Z,9.73
2019-01-22T08:49:10.563Z,9.15
2019-01-22T08:51:43.352Z,9.53
2019-01-22T08:54:32.183Z,9.90
2019-01-22T08:57:27.259Z,9.20
2019-01-22T09:00:17.816Z,9.25
2019-01-22T09:02:58.242Z,9.95
2019-01-22T09:05:47.047Z,9.05
2019-01-22T09:08:19.815Z,9.10
2019-01-22T09:11:09.867Z,9.73
2019-01-22T09:13:59.341Z,8.93
2019-01-22T09:17:02.379Z,11.48
2019-01-22T09:19:35.171Z,6.25
2019-01-22T09:22:31.364Z,8.30
2019-01-22T09:25:16.087Z,10.25
2019-01-22T09:27:50.079Z,7.65
2019-01-22T09:30:22.848Z,7.55
2019-01-22T09:33:04.219Z,7.90
2019-01-22T09:35:45.615Z,9.48
2019-01-22T09:38:15.320Z,8.50
2019-01-22T09:40:45.022Z,11.43
2019-01-22T09:43:14.707Z,9.60
2019-01-22T09:45:44.397Z,10.82
2019-01-22T09:48:14.156Z,9.00
2019-01-22T09:50:44.123Z,10.90
2019-01-22T09:53:13.805Z,9.70
2019-01-22T09:55:43.507Z,11.30
2019-01-22T09:58:13.312Z,12.13
2019-01-22T10:00:46.051Z,9.40
2019-01-22T10:03:16.638Z,11.65
2019-01-22T10:05:46.399Z,11.43
2019-01-22T10:10:42.040Z,9.45
2019-01-22T10:13:11.727Z,9.25
2019-01-22T10:15:41.551Z,10.40
2019-01-22T10:18:11.393Z,10.20
2019-01-22T10:20:41.174Z,13.60
2019-01-22T10:23:10.939Z,12.07
2019-01-22T10:25:41.603Z,11.40
2019-01-22T10:28:11.323Z,9.33
2019-01-22T10:30:41.039Z,10.20
2019-01-22T10:33:11.671Z,11.22
2019-01-22T10:35:41.360Z,10.93
2019-01-22T10:38:11.059Z,12.60
2019-01-22T10:40:40.760Z,11.95
2019-01-22T10:43:10.456Z,13.13
2019-01-22T10:45:40.143Z,11.05
2019-01-22T10:48:09.863Z,13.35
2019-01-22T10:50:39.555Z,10.53
2019-01-22T10:53:09.248Z,11.28
2019-01-22T10:55:38.983Z,11.33
2019-01-22T10:58:08.969Z,10.90
2019-01-22T11:00:39.819Z,10.00
2019-01-22T11:03:09.563Z,11.10
2019-01-22T11:05:40.411Z,12.53
2019-01-22T11:08:10.102Z,14.40
2019-01-22T11:10:39.795Z,12.82
2019-01-22T11:13:09.500Z,11.22
2019-01-22T11:15:40.191Z,13.53
2019-01-22T11:18:09.882Z,14.78
2019-01-22T11:20:39.603Z,11.38
2019-01-22T11:23:10.299Z,9.43
2019-01-22T11:25:43.613Z,11.90
2019-01-22T11:28:12.933Z,12.93
2019-01-22T11:30:42.640Z,11.22
2019-01-22T11:33:12.348Z,12.53
2019-01-22T11:35:42.036Z,12.98
2019-01-22T11:38:12.692Z,12.03
2019-01-22T11:40:43.831Z,15.60
2019-01-22T11:43:13.516Z,13.40
2019-01-22T11:45:43.220Z,11.33
2019-01-22T11:48:13.199Z,14.35
2019-01-22T11:50:43.033Z,13.55
2019-01-22T11:53:12.735Z,13.28
2019-01-22T11:55:42.427Z,13.80
2019-01-22T11:58:12.267Z,12.30
2019-01-22T12:00:43.594Z,13.80
2019-01-22T12:03:13.896Z,10.58
2019-01-22T12:05:43.871Z,12.98
2019-01-22T12:08:13.555Z,10.93
2019-01-22T12:10:43.376Z,13.62
2019-01-22T12:13:13.176Z,13.95
2019-01-22T12:15:43.976Z,15.23
2019-01-22T12:18:14.823Z,15.30
2019-01-22T12:20:46.861Z,12.60
2019-01-22T12:23:16.758Z,13.00
2019-01-22T12:25:47.403Z,13.80
2019-01-22T12:28:18.280Z,12.35
2019-01-22T12:30:48.131Z,14.43
2019-01-22T12:33:18.067Z,12.75
2019-01-22T12:35:47.752Z,13.83
2019-01-22T12:38:17.444Z,11.08
2019-01-22T12:40:47.140Z,11.97
2019-01-22T12:43:16.868Z,15.80
2019-01-22T12:45:49.704Z,14.45
2019-01-22T12:48:20.828Z,14.18
2019-01-22T12:50:50.764Z,12.40
2019-01-22T12:53:20.448Z,14.13
2019-01-22T12:55:50.164Z,12.93
2019-01-22T12:58:20.789Z,10.88
2019-01-22T13:00:50.491Z,14.40
2019-01-22T13:03:20.227Z,13.03
2019-01-22T13:05:53.523Z,13.50
2019-01-22T13:08:25.480Z,13.28
2019-01-22T13:10:55.317Z,10.88
2019-01-22T13:13:25.003Z,11.55
2019-01-22T13:15:55.611Z,12.05
2019-01-22T13:18:25.332Z,10.82
2019-01-22T13:20:55.123Z,11.70
2019-01-22T13:23:24.819Z,12.78
2019-01-22T13:25:54.579Z,11.78
2019-01-22T13:28:25.188Z,12.33
2019-01-22T13:30:54.944Z,11.65
2019-01-22T13:33:26.595Z,10.93
2019-01-22T13:35:56.288Z,13.28
2019-01-22T13:38:25.983Z,9.83
2019-01-22T13:40:55.715Z,10.75
2019-01-22T13:43:25.663Z,12.93
2019-01-22T13:45:57.378Z,12.98
2019-01-22T13:48:28.111Z,10.20
2019-01-22T13:50:57.812Z,9.33
2019-01-22T13:53:27.515Z,11.68
2019-01-22T13:55:57.207Z,11.85
2019-01-22T13:58:27.871Z,11.25
2019-01-22T14:00:57.564Z,10.10
2019-01-22T14:03:27.336Z,14.40
2019-01-22T14:05:57.996Z,12.20
2019-01-22T14:08:27.977Z,11.43
2019-01-22T14:10:57.829Z,12.15
2019-01-22T14:13:27.528Z,13.08
2019-01-22T14:15:57.251Z,11.85
2019-01-22T14:18:27.201Z,13.18
2019-01-22T14:20:56.875Z,12.90
2019-01-22T14:23:26.601Z,14.87
2019-01-22T14:25:56.299Z,11.70
2019-01-22T14:28:25.983Z,8.55
2019-01-22T14:30:55.714Z,12.68
2019-01-22T14:33:25.403Z,14.38
2019-01-22T14:35:55.328Z,9.50
2019-01-22T14:38:25.967Z,10.48
2019-01-22T14:40:55.683Z,12.68
2019-01-22T14:43:25.396Z,13.40
2019-01-22T14:45:56.003Z,11.22
2019-01-22T14:48:25.703Z,10.30
2019-01-22T14:50:55.411Z,11.90
2019-01-22T14:53:25.103Z,11.40
2019-01-22T14:55:56.779Z,12.75
2019-01-22T14:58:26.504Z,11.70
2019-01-22T15:00:56.200Z,11.25
2019-01-22T15:03:25.908Z,13.10
2019-01-22T15:05:55.851Z,12.33
2019-01-22T15:08:25.567Z,11.57
2019-01-22T15:10:55.579Z,10.25
2019-01-22T15:13:25.284Z,11.45
2019-01-22T15:15:55.895Z,10.18
2019-01-22T15:18:25.596Z,12.05
2019-01-22T15:20:55.307Z,12.13
2019-01-22T15:23:25.043Z,10.82
2019-01-22T15:25:54.731Z,11.25
2019-01-22T15:28:24.439Z,12.82
2019-01-22T15:30:54.128Z,12.53
2019-01-22T15:33:23.824Z,12.55
2019-01-22T15:35:54.479Z,12.03
2019-01-22T15:38:25.116Z,10.60
2019-01-22T15:40:54.821Z,11.03
2019-01-22T15:43:25.455Z,11.20
2019-01-22T15:45:55.151Z,11.75
2019-01-22T15:48:24.853Z,11.85
2019-01-22T15:50:56.772Z,12.20
2019-01-22T15:53:26.608Z,11.20
2019-01-22T15:55:56.565Z,13.50
2019-01-22T15:58:26.408Z,13.13
2019-01-22T16:00:56.123Z,10.78
2019-01-22T16:03:27.776Z,11.53
2019-01-22T16:05:57.463Z,11.43
2019-01-22T16:08:27.163Z,12.10
2019-01-22T16:10:56.872Z,13.20
2019-01-22T16:13:26.567Z,13.22
2019-01-22T16:15:56.313Z,10.30
2019-01-22T16:18:26.008Z,12.37
2019-01-22T16:20:55.723Z,12.37
2019-01-22T16:23:25.423Z,11.45
2019-01-22T16:25:55.179Z,14.50
2019-01-22T16:28:25.883Z,12.60
2019-01-22T16:30:55.587Z,13.35
2019-01-22T16:33:25.607Z,13.50
2019-01-22T16:35:55.543Z,14.50
2019-01-22T16:38:25.240Z,12.23
2019-01-22T16:40:55.207Z,12.93
2019-01-22T16:43:25.051Z,13.00
2019-01-22T16:45:55.868Z,14.15
2019-01-22T16:48:28.603Z,11.55
2019-01-22T16:50:59.271Z,11.35
2019-01-22T16:53:29.052Z,12.07
2019-01-22T16:55:59.036Z,12.63
2019-01-22T16:58:28.895Z,13.80
2019-01-22T17:00:58.591Z,12.80
2019-01-22T17:03:28.288Z,15.83
2019-01-22T17:05:58.008Z,16.02
2019-01-22T17:08:27.699Z,14.07
2019-01-22T17:10:57.400Z,12.45
2019-01-22T17:13:27.168Z,14.73
2019-01-22T17:15:56.889Z,13.30
2019-01-22T17:18:27.512Z,12.05
2019-01-22T17:20:57.477Z,14.63
2019-01-22T17:23:27.315Z,14.65
2019-01-22T17:25:57.012Z,14.10
2019-01-22T17:28:29.764Z,15.58
2019-01-22T17:31:01.134Z,13.28
2019-01-22T17:33:34.464Z,14.80
2019-01-22T17:36:04.235Z,12.45
2019-01-22T17:38:33.935Z,13.80
2019-01-22T17:41:03.635Z,13.13
2019-01-22T17:43:33.528Z,13.05
2019-01-22T17:46:03.221Z,14.43
2019-01-22T17:48:39.764Z,14.13
2019-01-22T17:51:09.480Z,13.08
2019-01-22T17:53:40.127Z,13.35
2019-01-22T17:56:10.772Z,15.95
2019-01-22T17:58:40.472Z,14.58
2019-01-22T18:01:10.235Z,12.45
2019-01-22T18:03:40.026Z,15.78
2019-01-22T18:06:10.631Z,15.23
2019-01-22T18:08:40.324Z,16.50
2019-01-22T18:11:10.044Z,16.75
2019-01-22T18:13:39.884Z,15.53
2019-01-22T18:16:10.018Z,16.85
2019-01-22T18:18:39.776Z,15.00
2019-01-22T18:21:09.518Z,12.53
2019-01-22T18:23:42.093Z,16.30
2019-01-22T18:26:12.760Z,14.23
2019-01-22T18:28:42.720Z,13.50
2019-01-22T18:31:13.324Z,12.98
2019-01-22T18:33:43.909Z,12.80
2019-01-22T18:36:15.532Z,15.50
2019-01-22T18:38:45.252Z,16.27
2019-01-22T18:41:15.875Z,11.10
2019-01-22T18:43:46.494Z,12.23
2019-01-22T18:46:17.144Z,13.68
2019-01-22T18:48:47.992Z,14.20
2019-01-22T18:51:19.642Z,15.15
2019-01-22T18:53:52.409Z,13.93
2019-01-22T18:56:22.111Z,12.07
2019-01-22T18:58:54.916Z,16.12
2019-01-22T19:01:24.616Z,14.87
2019-01-22T19:03:55.269Z,15.30
2019-01-22T19:06:27.145Z,13.83
2019-01-22T19:08:58.193Z,15.63
2019-01-22T19:11:28.408Z,16.57
2019-01-22T19:13:58.506Z,12.47
2019-01-22T19:16:28.649Z,16.42
2019-01-22T19:18:59.702Z,15.03
2019-01-22T19:21:31.696Z,15.40
2019-01-22T19:24:01.536Z,17.17
2019-01-22T19:26:33.128Z,16.02
2019-01-22T19:29:09.704Z,14.43
2019-01-22T19:31:39.789Z,14.03
2019-01-22T19:34:11.828Z,15.25
2019-01-22T19:36:41.697Z,14.15
2019-01-22T19:39:11.476Z,14.33
2019-01-22T19:41:54.622Z,14.23
2019-01-22T19:44:25.414Z,13.60
2019-01-22T19:46:55.116Z,15.48
2019-01-22T19:49:24.821Z,15.45
2019-01-22T19:51:54.536Z,15.50
2019-01-22T19:54:26.622Z,15.53
2019-01-22T19:57:04.399Z,17.32
2019-01-22T19:59:34.264Z,14.35
2019-01-22T20:02:04.040Z,14.07
2019-01-22T20:04:37.248Z,11.73
2019-01-22T20:07:07.786Z,13.05
2019-01-22T20:09:38.584Z,13.90
2019-01-22T20:12:14.240Z,13.18
2019-01-22T20:14:44.837Z,13.80
2019-01-22T20:17:16.757Z,14.07
2019-01-22T20:19:46.620Z,13.90
2019-01-22T20:22:17.498Z,14.10
2019-01-22T20:24:52.060Z,13.62
2019-01-22T20:27:21.808Z,12.13
2019-01-22T20:29:51.516Z,13.80
2019-01-22T20:32:22.480Z,12.03
2019-01-22T20:34:53.506Z,14.63
2019-01-22T20:37:24.324Z,14.07
2019-01-22T20:39:54.298Z,15.10
2019-01-22T20:42:31.145Z,14.95
2019-01-22T20:45:02.258Z,13.28
2019-01-22T20:47:34.112Z,14.60
2019-01-22T20:50:05.272Z,14.20
2019-01-22T20:52:35.244Z,16.00
2019-01-22T20:55:15.992Z,18.40
2019-01-22T20:57:46.760Z,14.60
2019-01-22T21:00:21.188Z,15.63
2019-01-22T21:02:51.154Z,15.60
2019-01-22T21:05:27.805Z,14.85
2019-01-22T21:07:57.984Z,16.57
2019-01-22T21:10:31.772Z,15.88
2019-01-22T21:13:01.800Z,17.65
2019-01-22T21:15:33.714Z,15.70
2019-01-22T21:18:04.649Z,17.57
2019-01-22T21:20:36.624Z,15.88
2019-01-22T21:23:07.430Z,14.70
2019-01-22T21:25:37.120Z,16.40
2019-01-22T21:28:08.775Z,17.27
2019-01-22T21:30:39.667Z,15.28
2019-01-22T21:33:09.516Z,13.90
2019-01-22T21:35:39.224Z,18.37
2019-01-22T21:38:10.449Z,15.48
2019-01-22T21:40:42.224Z,11.53
2019-01-22T21:43:12.225Z,18.67
2019-01-22T21:45:44.264Z,17.80
2019-01-22T21:48:21.044Z,18.10
2019-01-22T21:50:51.720Z,15.75
2019-01-22T21:53:22.028Z,16.52
2019-01-22T21:55:52.014Z,15.78
2019-01-22T21:58:22.784Z,15.72
2019-01-22T22:00:53.675Z,18.23
2019-01-22T22:03:23.774Z,16.32
2019-01-22T22:05:53.912Z,13.50
2019-01-22T22:08:24.768Z,17.65
2019-01-22T22:10:54.750Z,15.20
2019-01-22T22:13:24.580Z,16.30
2019-01-22T22:15:54.544Z,16.23
2019-01-22T22:18:25.638Z,16.25
2019-01-22T22:20:55.512Z,15.58
2019-01-22T22:23:25.344Z,16.80
2019-01-22T22:25:55.620Z,17.32
2019-01-22T22:28:25.317Z,17.82
2019-01-22T22:30:55.020Z,16.50
2019-01-22T22:33:25.004Z,17.40
2019-01-22T22:35:54.872Z,15.53
2019-01-22T22:38:28.504Z,15.05
2019-01-22T22:40:59.134Z,17.15
2019-01-22T22:43:31.388Z,15.43
2019-01-22T22:46:01.084Z,17.15
2019-01-22T22:48:38.801Z,15.30
2019-01-22T22:51:09.529Z,11.08
2019-01-22T22:53:40.164Z,13.85
2019-01-22T22:56:10.198Z,14.83
2019-01-22T22:58:41.278Z,11.43
2019-01-22T23:01:18.810Z,14.98
2019-01-22T23:03:50.552Z,14.00
2019-01-22T23:06:20.553Z,15.03
2019-01-22T23:08:50.528Z,14.87
2019-01-22T23:11:20.228Z,14.43
2019-01-22T23:13:50.865Z,13.53
2019-01-22T23:16:20.897Z,17.20
2019-01-22T23:18:52.705Z,11.97
2019-01-22T23:21:22.671Z,16.17
2019-01-22T23:23:55.513Z,13.85
2019-01-22T23:26:25.576Z,15.32
2019-01-22T23:28:55.729Z,17.12
2019-01-22T23:31:25.826Z,16.17
2019-01-22T23:33:55.974Z,17.80
2019-01-22T23:36:27.119Z,16.93
2019-01-22T23:38:57.240Z,15.50
2019-01-22T23:41:27.341Z,15.03
2019-01-22T23:43:57.501Z,16.57
2019-01-22T23:46:27.333Z,15.70
2019-01-22T23:48:57.297Z,16.17
2019-01-22T23:51:28.141Z,16.25
2019-01-22T23:53:59.070Z,13.90
2019-01-22T23:56:30.988Z,15.50
2019-01-22T23:59:01.661Z,15.08
